Terminal Aerodrome Forecast
Issued by NWS

Home | Current Version | Previous Version | Text Only | Print | Product List | Glossary On
Versions: 1 2 3 4 5 6 7 8 9 10 11 12 13 14 15 16 17
000
FTUS41 KGYX 170525
TAFRKD
TAF
KRKD 170525Z 1706/1806 27004KT 5SM BR SCT050
      TEMPO 1708/1712 2SM BR BKN002
     FM171300 23005KT P6SM SCT060
     FM171800 18008KT P6SM SCT100 BKN250
     FM180000 21004KT P6SM SCT100 BKN250
      AMD LTD TO CLD VIS AND WIND=

USA.gov is the U.S. government's official web portal to all federal, state and local government web resources and services.